Time;durP1;ratioP1;P1;durP2;ratioP2;P2;SDS_P1;SDS_P2;PMS_P1;PMS_P2;Temp;Humidity;BMP_temperature;BMP_pressure;BME280_temperature;BME280_humidity;BME280_pressure;Samples;Min_cycle;Max_cycle;Signal;HPM_P1;HPM_P2
2022/08/21 00:02:01;;;;;;;11.97;8.20;;;17.50;1.00;;;;;;5040916;28;20422;-51
2022/08/21 00:04:27;;;;;;;12.63;8.07;;;17.50;99.90;;;;;;5032674;28;20186;-51
2022/08/21 00:06:53;;;;;;;12.30;8.50;;;17.50;99.90;;;;;;5042038;28;20175;-51
2022/08/21 00:09:20;;;;;;;10.80;7.93;;;17.50;99.90;;;;;;5032831;28;20642;-51
2022/08/21 00:11:46;;;;;;;10.67;8.60;;;17.50;99.90;;;;;;5032541;28;20186;-57
2022/08/21 00:14:13;;;;;;;16.70;8.90;;;17.60;99.90;;;;;;5032577;28;20449;-51
2022/08/21 00:16:39;;;;;;;12.30;8.40;;;17.40;99.90;;;;;;5033088;28;20456;-51
2022/08/21 00:19:06;;;;;;;11.23;8.43;;;17.30;99.90;;;;;;5040333;28;20510;-51
2022/08/21 00:21:32;;;;;;;9.73;7.70;;;17.30;99.90;;;;;;5044761;28;20281;-50
2022/08/21 00:23:58;;;;;;;12.93;8.07;;;17.30;99.90;;;;;;5047994;28;20480;-51
2022/08/21 00:26:23;;;;;;;13.77;7.73;;;17.30;99.90;;;;;;5032264;28;20477;-51
2022/08/21 00:28:49;;;;;;;12.57;7.27;;;17.30;99.90;;;;;;5050787;28;20524;-51
2022/08/21 00:31:15;;;;;;;10.07;7.43;;;17.40;99.90;;;;;;5043816;28;20191;-51
2022/08/21 00:33:41;;;;;;;12.10;7.50;;;17.30;99.90;;;;;;5034850;28;20278;-51
2022/08/21 00:36:07;;;;;;;9.40;7.03;;;17.20;99.90;;;;;;5042045;28;20859;-55
2022/08/21 00:38:33;;;;;;;9.97;6.70;;;17.10;1.00;;;;;;5031891;28;20422;-51
2022/08/21 00:41:01;;;;;;;17.80;9.20;;;17.10;1.00;;;;;;5031852;28;20467;-51
2022/08/21 00:43:30;;;;;;;13.77;8.00;;;17.20;1.00;;;;;;5031943;28;20445;-51
2022/08/21 00:45:57;;;;;;;17.97;11.57;;;17.20;1.00;;;;;;5031748;28;20496;-51
2022/08/21 00:48:24;;;;;;;9.83;7.77;;;17.10;1.00;;;;;;5032557;28;20429;-51
2022/08/21 00:50:59;;;;;;;15.10;8.63;;;17.00;1.00;;;;;;5032435;28;20468;-50
2022/08/21 00:53:26;;;;;;;12.63;8.13;;;17.00;1.00;;;;;;5031628;28;20428;-51
2022/08/21 00:55:52;;;;;;;28.83;18.57;;;17.00;1.00;;;;;;5039959;28;20455;-51
2022/08/21 00:58:19;;;;;;;31.13;21.00;;;17.10;1.00;;;;;;5027750;28;20455;-51
2022/08/21 01:00:47;;;;;;;23.03;14.40;;;17.10;1.00;;;;;;5025242;28;20531;-51
2022/08/21 01:03:17;;;;;;;19.13;13.17;;;17.00;1.00;;;;;;5030891;28;20445;-51
2022/08/21 01:05:43;;;;;;;26.00;16.43;;;17.00;1.00;;;;;;5036069;28;20471;-52
2022/08/21 01:08:11;;;;;;;22.60;15.90;;;17.00;1.00;;;;;;5027565;28;20441;-51
2022/08/21 01:10:37;;;;;;;23.60;13.70;;;16.90;1.00;;;;;;5032807;28;20523;-51
2022/08/21 01:13:06;;;;;;;22.37;15.27;;;16.90;1.00;;;;;;5047627;28;20441;-51
2022/08/21 01:15:36;;;;;;;20.63;11.80;;;16.90;1.00;;;;;;5051172;28;20899;-51
2022/08/21 01:18:04;;;;;;;27.90;16.70;;;16.90;1.00;;;;;;5049482;28;20534;-51
2022/08/21 01:20:30;;;;;;;28.63;17.30;;;17.00;1.00;;;;;;5033956;28;20944;-51
2022/08/21 01:22:56;;;;;;;19.73;11.17;;;16.90;1.00;;;;;;5043578;28;20988;-51
2022/08/21 01:25:22;;;;;;;18.00;11.07;;;16.80;1.00;;;;;;5050729;28;20480;-51
2022/08/21 01:27:49;;;;;;;17.27;10.40;;;16.90;1.00;;;;;;5047034;28;20238;-51
2022/08/21 01:30:24;;;;;;;16.63;11.30;;;16.80;1.00;;;;;;5027050;28;20533;-51
2022/08/21 01:32:51;;;;;;;18.17;9.30;;;16.80;1.00;;;;;;5028195;28;20428;-51
2022/08/21 01:35:17;;;;;;;17.57;10.10;;;16.70;1.00;;;;;;5028677;28;20464;-50
2022/08/21 01:37:44;;;;;;;14.23;8.60;;;16.70;1.00;;;;;;5027664;28;20457;-51
2022/08/21 01:40:11;;;;;;;13.30;8.20;;;16.70;1.00;;;;;;5026837;28;20546;-51
2022/08/21 01:42:37;;;;;;;16.17;9.57;;;16.70;1.00;;;;;;5027227;28;22188;-51
2022/08/21 01:45:05;;;;;;;11.97;8.40;;;16.70;1.00;;;;;;5030775;28;20515;-51
2022/08/21 01:47:31;;;;;;;10.73;7.27;;;16.80;1.00;;;;;;5038377;28;20869;-50
2022/08/21 01:49:57;;;;;;;8.00;5.53;;;16.80;1.00;;;;;;5030530;28;20552;-50
2022/08/21 01:52:23;;;;;;;10.87;6.60;;;16.90;1.00;;;;;;5031517;28;20453;-51
2022/08/21 01:54:48;;;;;;;11.73;7.07;;;16.80;1.00;;;;;;5032107;28;20202;-51
2022/08/21 01:57:14;;;;;;;13.20;7.33;;;16.80;1.00;;;;;;5046710;28;20945;-51
2022/08/21 01:59:41;;;;;;;11.50;6.20;;;16.90;1.00;;;;;;5031571;28;20195;-51
2022/08/21 02:02:06;;;;;;;9.63;5.83;;;16.90;1.00;;;;;;5030665;28;20969;-50
2022/08/21 02:04:33;;;;;;;7.70;6.00;;;16.80;1.00;;;;;;5032481;28;20434;-51
2022/08/21 02:07:00;;;;;;;6.87;5.20;;;16.80;1.00;;;;;;5046517;28;20194;-50
2022/08/21 02:09:25;;;;;;;12.87;6.30;;;16.80;1.00;;;;;;5035557;28;20503;-50
2022/08/21 02:11:51;;;;;;;8.57;5.23;;;16.80;1.00;;;;;;5053759;28;20817;-50
2022/08/21 02:14:17;;;;;;;8.73;5.37;;;16.80;1.00;;;;;;5052538;28;20253;-51
2022/08/21 02:16:44;;;;;;;6.43;4.57;;;16.70;1.00;;;;;;5049164;28;20194;-50
2022/08/21 02:19:12;;;;;;;7.90;5.60;;;16.80;1.00;;;;;;5043222;28;20449;-51
2022/08/21 02:21:37;;;;;;;8.83;5.50;;;16.90;1.00;;;;;;5046258;28;20455;-51
2022/08/21 02:24:04;;;;;;;6.83;4.63;;;16.90;1.00;;;;;;5037908;28;21094;-51
2022/08/21 02:26:29;;;;;;;9.37;4.90;;;17.00;1.00;;;;;;5054059;28;20569;-50
2022/08/21 02:28:55;;;;;;;7.47;5.00;;;16.90;1.00;;;;;;5054558;28;20421;-51
2022/08/21 02:31:21;;;;;;;7.33;4.40;;;16.90;1.00;;;;;;5052192;28;20190;-51
2022/08/21 02:33:47;;;;;;;5.40;4.37;;;17.00;1.00;;;;;;5034344;28;20240;-50
2022/08/21 02:36:13;;;;;;;5.13;4.37;;;17.00;1.00;;;;;;5034186;28;20255;-50
2022/08/21 02:38:41;;;;;;;6.10;4.20;;;17.00;1.00;;;;;;5034411;28;20199;-51
2022/08/21 02:41:15;;;;;;;7.60;5.10;;;17.00;1.00;;;;;;5034645;28;20452;-50
2022/08/21 02:43:41;;;;;;;5.67;4.47;;;16.90;1.00;;;;;;5046203;28;20506;-50
2022/08/21 02:46:08;;;;;;;6.00;4.30;;;16.90;1.00;;;;;;5046429;28;20473;-52
2022/08/21 02:48:34;;;;;;;7.13;5.40;;;16.90;1.00;;;;;;5034662;28;20199;-51
2022/08/21 02:51:01;;;;;;;8.87;5.30;;;16.90;1.00;;;;;;5044431;28;20469;-51
2022/08/21 02:53:29;;;;;;;8.33;4.87;;;16.90;1.00;;;;;;5033994;28;20417;-50
2022/08/21 02:55:56;;;;;;;10.33;4.70;;;16.80;1.00;;;;;;5039995;28;20478;-50
2022/08/21 02:58:26;;;;;;;10.40;4.40;;;16.80;1.00;;;;;;5044497;28;20445;-50
2022/08/21 03:00:53;;;;;;;5.87;4.40;;;16.70;1.00;;;;;;5034165;28;20511;-50
2022/08/21 03:03:20;;;;;;;7.70;4.70;;;16.60;1.00;;;;;;5034114;28;20453;-50
2022/08/21 03:05:47;;;;;;;7.73;5.93;;;16.70;1.00;;;;;;5046978;28;20472;-50
2022/08/21 03:08:14;;;;;;;5.10;4.50;;;16.70;1.00;;;;;;5039407;28;20456;-50
2022/08/21 03:10:44;;;;;;;8.00;5.07;;;16.70;1.00;;;;;;5029829;28;20937;-50
2022/08/21 03:13:10;;;;;;;7.03;4.53;;;16.70;1.00;;;;;;5036264;28;20443;-50
2022/08/21 03:15:36;;;;;;;6.83;5.37;;;16.70;1.00;;;;;;5035481;28;20444;-51
2022/08/21 03:18:04;;;;;;;6.60;5.00;;;16.70;1.00;;;;;;5033911;28;20453;-50
2022/08/21 03:20:30;;;;;;;5.87;5.00;;;16.70;1.00;;;;;;5032393;28;20453;-50
2022/08/21 03:22:56;;;;;;;8.30;5.50;;;16.70;1.00;;;;;;5033369;28;20492;-50
2022/08/21 03:25:24;;;;;;;8.83;6.37;;;16.70;1.00;;;;;;5033444;28;20889;-50
2022/08/21 03:27:50;;;;;;;9.43;6.00;;;16.70;1.00;;;;;;5033099;28;20187;-50
2022/08/21 03:30:16;;;;;;;6.10;5.30;;;16.60;1.00;;;;;;5032502;28;20451;-50
2022/08/21 03:32:42;;;;;;;6.43;5.10;;;16.60;1.00;;;;;;5033679;28;20198;-50
2022/08/21 03:35:09;;;;;;;7.90;5.57;;;16.70;1.00;;;;;;5033171;28;20445;-50
2022/08/21 03:37:35;;;;;;;7.60;6.23;;;16.70;1.00;;;;;;5035113;28;20281;-50
2022/08/21 03:40:02;;;;;;;8.63;5.13;;;16.70;1.00;;;;;;5033837;28;20464;-50
2022/08/21 03:42:28;;;;;;;8.00;5.47;;;16.70;1.00;;;;;;5041783;28;20445;-50
2022/08/21 03:44:53;;;;;;;9.60;5.13;;;16.70;1.00;;;;;;5052173;28;21023;-50
2022/08/21 03:47:19;;;;;;;5.50;4.80;;;16.60;1.00;;;;;;5033803;28;20187;-50
2022/08/21 03:49:45;;;;;;;9.47;6.03;;;16.60;1.00;;;;;;5036072;28;20187;-50
2022/08/21 03:52:10;;;;;;;6.27;5.10;;;16.60;1.00;;;;;;5043400;28;20198;-50
2022/08/21 03:54:36;;;;;;;11.40;5.87;;;16.50;1.00;;;;;;5043220;28;20269;-50
2022/08/21 03:57:02;;;;;;;6.80;5.37;;;16.50;1.00;;;;;;5040519;28;20679;-50
2022/08/21 03:59:28;;;;;;;6.90;5.00;;;16.50;1.00;;;;;;5032785;28;20198;-50
2022/08/21 04:01:59;;;;;;;9.80;5.37;;;16.50;1.00;;;;;;5032907;28;20445;-50
2022/08/21 04:04:26;;;;;;;8.17;5.30;;;16.40;1.00;;;;;;5032489;28;20229;-50
2022/08/21 04:06:52;;;;;;;6.30;5.00;;;16.40;1.00;;;;;;5047181;28;20830;-50
2022/08/21 04:09:19;;;;;;;7.93;5.53;;;16.30;1.00;;;;;;5050528;28;20444;-50
2022/08/21 04:11:45;;;;;;;7.73;5.63;;;16.40;1.00;;;;;;5048682;28;20202;-50
2022/08/21 04:14:12;;;;;;;6.83;5.47;;;16.40;1.00;;;;;;5049600;28;20495;-51
2022/08/21 04:16:38;;;;;;;7.50;5.10;;;16.40;1.00;;;;;;5047411;28;20465;-50
2022/08/21 04:19:03;;;;;;;8.00;5.03;;;16.40;1.00;;;;;;5032269;28;20487;-50
2022/08/21 04:21:30;;;;;;;6.53;4.73;;;16.40;1.00;;;;;;5038713;28;20442;-50
2022/08/21 04:23:56;;;;;;;12.00;5.43;;;16.40;1.00;;;;;;5037260;28;20207;-50
2022/08/21 04:26:22;;;;;;;6.97;5.30;;;16.30;1.00;;;;;;5047924;28;20810;-50
2022/08/21 04:28:48;;;;;;;7.00;4.97;;;16.30;1.00;;;;;;5032231;28;20547;-50
2022/08/21 04:31:14;;;;;;;8.60;5.10;;;16.20;1.00;;;;;;5032305;28;20446;-50
2022/08/21 04:33:40;;;;;;;5.90;4.70;;;16.10;1.00;;;;;;5032053;28;20232;-50
2022/08/21 04:36:06;;;;;;;6.53;4.77;;;16.10;1.00;;;;;;5032339;28;20203;-51
2022/08/21 04:38:32;;;;;;;6.40;4.97;;;16.20;1.00;;;;;;5043157;28;20209;-50
2022/08/21 04:40:58;;;;;;;7.40;5.17;;;16.30;1.00;;;;;;5052067;28;20851;-50
2022/08/21 04:43:23;;;;;;;6.80;4.70;;;16.40;1.00;;;;;;5032240;28;20195;-50
2022/08/21 04:45:51;;;;;;;11.27;5.63;;;16.50;1.00;;;;;;5032298;28;20249;-50
2022/08/21 04:48:20;;;;;;;7.40;5.70;;;16.70;1.00;;;;;;5031931;28;20651;-51
2022/08/21 04:51:05;;;;;;;7.47;4.97;;;16.60;1.00;;;;;;5036489;28;20947;-50
2022/08/21 04:53:37;;;;;;;6.17;4.67;;;16.60;1.00;;;;;;5040355;28;20487;-50
2022/08/21 04:56:08;;;;;;;9.07;4.77;;;16.70;1.00;;;;;;5038890;28;20910;-50
2022/08/21 04:58:36;;;;;;;10.87;5.50;;;16.70;1.00;;;;;;5050099;28;20467;-50
2022/08/21 05:01:06;;;;;;;7.93;4.87;;;16.70;1.00;;;;;;5044329;28;20990;-50
2022/08/21 05:03:34;;;;;;;6.33;4.37;;;16.80;1.00;;;;;;5032288;28;20450;-50
2022/08/21 05:06:00;;;;;;;6.00;5.17;;;17.00;1.00;;;;;;5041135;28;20526;-50
2022/08/21 05:08:27;;;;;;;8.80;4.40;;;16.90;1.00;;;;;;5049741;28;20416;-50
2022/08/21 05:10:54;;;;;;;7.33;5.17;;;16.90;1.00;;;;;;5032014;28;20457;-50
2022/08/21 05:13:20;;;;;;;5.50;4.50;;;17.00;1.00;;;;;;5041476;28;20833;-50
2022/08/21 05:15:45;;;;;;;9.60;5.07;;;17.10;1.00;;;;;;5039202;28;20437;-50
2022/08/21 05:18:11;;;;;;;6.03;5.07;;;17.20;1.00;;;;;;5048357;28;20259;-50
2022/08/21 05:20:37;;;;;;;7.43;4.80;;;17.30;1.00;;;;;;5051022;28;20194;-50
2022/08/21 05:23:14;;;;;;;8.07;5.10;;;17.40;1.00;;;;;;5046497;28;20691;-50
2022/08/21 05:25:41;;;;;;;6.73;4.67;;;17.40;1.00;;;;;;5043781;28;20206;-50
2022/08/21 05:28:07;;;;;;;11.73;5.50;;;17.30;1.00;;;;;;5041220;28;20549;-50
2022/08/21 05:30:34;;;;;;;9.50;5.10;;;17.40;1.00;;;;;;5051068;28;20425;-50
2022/08/21 05:33:01;;;;;;;6.37;4.67;;;17.50;1.00;;;;;;5037516;28;20476;-51
2022/08/21 05:35:28;;;;;;;8.40;4.63;;;17.60;1.00;;;;;;5033676;28;20453;-51
2022/08/21 05:37:54;;;;;;;6.43;4.80;;;17.60;1.00;;;;;;5031713;28;20854;-51
2022/08/21 05:40:20;;;;;;;5.43;4.23;;;17.70;99.90;;;;;;5031764;28;21300;-51
2022/08/21 05:42:46;;;;;;;5.47;4.57;;;17.70;99.90;;;;;;5044407;28;20449;-51
2022/08/21 05:45:12;;;;;;;6.40;4.80;;;17.70;99.90;;;;;;5030842;28;20238;-50
2022/08/21 05:47:37;;;;;;;6.97;4.33;;;17.80;99.90;;;;;;5037987;28;20191;-51
2022/08/21 05:50:04;;;;;;;5.60;4.30;;;17.90;99.90;;;;;;5030931;28;20190;-50
2022/08/21 05:52:30;;;;;;;7.90;4.90;;;18.00;99.90;;;;;;5040990;28;20191;-50
2022/08/21 05:54:55;;;;;;;5.30;4.90;;;18.00;99.90;;;;;;5030766;28;20449;-51
2022/08/21 05:57:22;;;;;;;7.60;4.50;;;18.10;99.90;;;;;;5039691;28;20186;-51
2022/08/21 05:59:48;;;;;;;11.90;5.27;;;18.20;99.90;;;;;;5046734;28;20222;-51
2022/08/21 06:02:16;;;;;;;7.23;5.63;;;18.30;99.90;;;;;;5031102;28;20441;-51
2022/08/21 06:04:42;;;;;;;6.73;5.27;;;18.40;99.90;;;;;;5034446;28;20452;-51
2022/08/21 06:07:08;;;;;;;7.57;5.37;;;18.40;99.90;;;;;;5039141;28;20441;-51
2022/08/21 06:09:34;;;;;;;7.10;4.63;;;18.40;99.90;;;;;;5039383;28;20587;-51
2022/08/21 06:12:04;;;;;;;7.27;5.70;;;18.40;99.90;;;;;;5036756;28;20437;-51
2022/08/21 06:14:30;;;;;;;8.40;5.67;;;18.50;99.90;;;;;;5031735;28;20441;-51
2022/08/21 06:17:03;;;;;;;6.60;4.90;;;18.50;99.90;;;;;;5032223;28;20449;-51
2022/08/21 06:19:28;;;;;;;6.43;5.03;;;18.60;99.90;;;;;;5037911;28;20190;-51
2022/08/21 06:21:54;;;;;;;9.43;5.60;;;18.70;99.90;;;;;;5035954;28;20821;-51
2022/08/21 06:24:19;;;;;;;8.80;5.00;;;18.80;99.90;;;;;;5031419;28;20222;-50
2022/08/21 06:26:46;;;;;;;6.93;3.90;;;18.90;99.90;;;;;;5034888;28;20300;-51
2022/08/21 06:29:16;;;;;;;5.30;3.83;;;18.80;99.90;;;;;;5039424;28;20183;-51
2022/08/21 06:31:42;;;;;;;6.90;3.93;;;18.80;99.90;;;;;;5039600;28;20954;-51
2022/08/21 06:34:08;;;;;;;5.90;3.80;;;18.70;99.90;;;;;;5044083;28;20433;-52
2022/08/21 06:36:33;;;;;;;6.40;4.13;;;18.50;99.90;;;;;;5047688;28;20455;-51
2022/08/21 06:38:59;;;;;;;7.43;4.10;;;18.40;99.90;;;;;;5034719;28;20206;-51
2022/08/21 06:41:25;;;;;;;5.70;3.87;;;18.30;99.90;;;;;;5044112;28;20644;-51
2022/08/21 06:43:51;;;;;;;7.53;4.00;;;18.30;99.90;;;;;;5034480;28;20200;-51
2022/08/21 06:46:17;;;;;;;5.07;3.70;;;18.50;99.90;;;;;;5039892;28;20472;-52
2022/08/21 06:48:42;;;;;;;7.13;4.13;;;18.90;99.90;;;;;;5040786;28;20636;-52
2022/08/21 06:51:08;;;;;;;7.50;4.40;;;19.20;99.90;;;;;;5034628;28;20214;-52
2022/08/21 06:53:34;;;;;;;9.40;3.73;;;19.50;99.90;;;;;;5046425;28;20628;-51
2022/08/21 06:55:59;;;;;;;7.23;4.20;;;19.80;99.90;;;;;;5047390;28;20183;-52
2022/08/21 06:58:25;;;;;;;6.03;3.90;;;19.90;99.90;;;;;;5051485;28;20194;-51
2022/08/21 07:00:51;;;;;;;4.43;3.10;;;20.10;99.90;;;;;;5044266;28;20202;-51
2022/08/21 07:03:32;;;;;;;3.93;3.50;;;20.40;99.90;;;;;;5034160;28;20640;-52
2022/08/21 07:05:58;;;;;;;8.33;3.40;;;20.80;99.90;;;;;;5041077;28;20476;-51
2022/08/21 07:08:25;;;;;;;5.20;3.33;;;21.00;99.90;;;;;;5036759;28;21181;-51
2022/08/21 07:10:53;;;;;;;8.23;3.80;;;21.30;99.90;;;;;;5033476;28;20171;-52
2022/08/21 07:13:18;;;;;;;4.80;3.00;;;21.50;99.90;;;;;;5039428;28;20663;-51
2022/08/21 07:15:44;;;;;;;4.00;3.07;;;21.60;99.90;;;;;;5039636;28;20434;-52
2022/08/21 07:18:11;;;;;;;8.27;2.63;;;21.60;99.90;;;;;;5041449;28;20183;-55
2022/08/21 07:20:37;;;;;;;8.50;2.80;;;21.80;99.90;;;;;;5039416;28;20186;-52
2022/08/21 07:23:11;;;;;;;9.03;2.80;;;22.10;99.90;;;;;;5039657;28;21000;-52
2022/08/21 07:25:37;;;;;;;5.03;2.53;;;22.30;99.90;;;;;;5036010;28;20473;-51
2022/08/21 07:28:03;;;;;;;8.67;3.70;;;22.50;99.90;;;;;;5048147;28;20443;-51
2022/08/21 07:30:29;;;;;;;12.30;3.20;;;22.80;99.90;;;;;;5040303;28;20186;-52
2022/08/21 07:32:55;;;;;;;4.70;2.70;;;23.10;99.90;;;;;;5049839;28;20182;-52
2022/08/21 07:35:21;;;;;;;5.90;3.30;;;23.40;99.90;;;;;;5034130;28;20539;-53
2022/08/21 07:37:47;;;;;;;7.10;3.00;;;23.50;99.90;;;;;;5031768;28;20530;-53
2022/08/21 07:40:15;;;;;;;4.77;3.10;;;23.60;99.90;;;;;;5033229;28;20448;-53
2022/08/21 07:42:45;;;;;;;6.13;2.90;;;23.80;99.90;;;;;;5033116;28;20441;-51
2022/08/21 07:45:12;;;;;;;8.33;3.23;;;24.00;99.90;;;;;;5047423;28;20495;-52
2022/08/21 07:47:38;;;;;;;8.33;3.47;;;24.10;99.90;;;;;;5038117;28;20945;-52
2022/08/21 07:50:06;;;;;;;3.90;2.53;;;24.30;99.90;;;;;;5045190;28;20437;-52
2022/08/21 07:52:32;;;;;;;7.60;3.50;;;24.40;99.90;;;;;;5039758;28;20186;-53
2022/08/21 07:54:59;;;;;;;11.37;7.10;;;24.30;99.90;;;;;;5049268;28;20441;-53
2022/08/21 07:57:24;;;;;;;4.77;3.30;;;24.30;99.90;;;;;;5051506;28;20413;-52
2022/08/21 07:59:50;;;;;;;8.47;5.73;;;24.50;99.90;;;;;;5050054;28;20463;-53
2022/08/21 08:02:27;;;;;;;7.13;3.30;;;25.00;99.90;;;;;;5051030;28;20225;-53
2022/08/21 08:04:53;;;;;;;8.97;3.23;;;25.40;99.90;;;;;;5032344;28;20196;-53
2022/08/21 08:07:19;;;;;;;7.83;3.07;;;25.60;99.90;;;;;;5037450;28;21101;-54
2022/08/21 08:09:44;;;;;;;6.00;3.20;;;25.70;99.90;;;;;;5044984;28;20204;-54
2022/08/21 08:12:10;;;;;;;3.53;2.20;;;25.80;99.90;;;;;;5046347;28;20263;-53
2022/08/21 08:14:36;;;;;;;6.97;2.50;;;26.10;99.90;;;;;;5050616;28;20244;-53
2022/08/21 08:17:02;;;;;;;4.47;2.17;;;26.20;99.90;;;;;;5048609;28;20664;-55
2022/08/21 08:19:28;;;;;;;2.87;2.00;;;25.80;99.90;;;;;;5048534;28;20451;-54
2022/08/21 08:21:54;;;;;;;3.83;2.60;;;25.50;99.90;;;;;;5050512;28;20222;-54
2022/08/21 08:24:20;;;;;;;4.40;2.20;;;25.60;99.90;;;;;;5034233;28;20460;-54
2022/08/21 08:26:46;;;;;;;5.73;2.23;;;25.70;99.90;;;;;;5032186;28;20457;-54
2022/08/21 08:29:12;;;;;;;6.40;2.13;;;26.10;99.90;;;;;;5047882;28;20824;-53
2022/08/21 08:31:38;;;;;;;7.13;2.10;;;26.50;99.90;;;;;;5045533;28;20445;-54
2022/08/21 08:34:04;;;;;;;3.57;2.13;;;26.90;99.90;;;;;;5030546;28;20233;-55
2022/08/21 08:36:35;;;;;;;6.83;2.50;;;27.20;99.90;;;;;;5035927;28;20253;-54
2022/08/21 08:39:03;;;;;;;6.37;2.23;;;27.20;99.90;;;;;;5051907;28;20178;-54
2022/08/21 08:41:29;;;;;;;4.20;2.10;;;27.30;99.90;;;;;;5049307;28;20865;-54
2022/08/21 08:43:59;;;;;;;5.93;2.60;;;26.80;99.90;;;;;;5050139;28;20452;-55
2022/08/21 08:46:36;;;;;;;6.30;2.33;;;26.80;99.90;;;;;;5050134;28;20512;-54
2022/08/21 08:49:17;;;;;;;6.43;2.60;;;26.60;99.90;;;;;;5032776;28;20517;-53
2022/08/21 08:51:48;;;;;;;7.73;2.30;;;26.90;99.90;;;;;;5031555;28;21187;-55
2022/08/21 08:54:31;;;;;;;4.73;2.27;;;27.10;99.90;;;;;;5031542;28;20783;-54
2022/08/21 08:57:01;;;;;;;7.27;2.37;;;27.30;99.90;;;;;;5043232;28;20445;-55
2022/08/21 08:59:46;;;;;;;8.53;2.63;;;27.10;99.90;;;;;;5033358;28;20455;-55
2022/08/21 09:02:13;;;;;;;5.97;2.80;;;27.10;99.90;;;;;;5031364;28;20461;-55
2022/08/21 09:04:39;;;;;;;6.00;2.67;;;27.10;99.90;;;;;;5031737;28;20402;-53
2022/08/21 09:07:39;;;;;;;8.57;3.13;;;27.30;99.90;;;;;;5031386;28;20477;-54
2022/08/21 09:10:05;;;;;;;7.17;2.77;;;27.10;99.90;;;;;;5031297;28;20428;-54
2022/08/21 09:12:31;;;;;;;11.97;3.70;;;26.70;99.90;;;;;;5038661;28;20445;-54
2022/08/21 09:15:32;;;;;;;6.90;3.10;;;26.80;99.90;;;;;;5047907;28;21339;-54
2022/08/21 09:18:12;;;;;;;5.67;2.27;;;26.90;99.90;;;;;;5041268;28;20191;-55
2022/08/21 09:21:09;;;;;;;10.70;3.70;;;26.90;99.90;;;;;;5033197;28;20886;-54
2022/08/21 09:23:52;;;;;;;7.23;2.53;;;26.60;99.90;;;;;;5017874;28;20507;-55
2022/08/21 09:26:21;;;;;;;7.00;2.60;;;26.60;99.90;;;;;;5041689;28;20954;-54
2022/08/21 09:28:54;;;;;;;7.93;2.73;;;26.80;99.90;;;;;;5044676;28;20968;-54
2022/08/21 09:31:37;;;;;;;6.23;2.90;;;27.00;99.90;;;;;;5042159;28;20433;-54
2022/08/21 09:34:08;;;;;;;8.30;2.90;;;27.00;99.90;;;;;;5046144;28;20472;-54
2022/08/21 09:36:44;;;;;;;5.20;2.63;;;26.80;99.90;;;;;;5044106;28;20926;-54
2022/08/21 09:39:21;;;;;;;9.20;3.40;;;26.50;99.90;;;;;;5046733;28;20527;-54
2022/08/21 09:41:56;;;;;;;10.60;3.17;;;26.40;99.90;;;;;;5030559;28;20893;-57
2022/08/21 09:44:29;;;;;;;7.20;2.93;;;26.40;99.90;;;;;;5032370;28;20470;-55
2022/08/21 09:46:55;;;;;;;5.10;3.00;;;26.40;99.90;;;;;;5046064;28;20515;-55
2022/08/21 09:49:34;;;;;;;8.87;3.53;;;26.40;99.90;;;;;;5038506;28;20851;-55
2022/08/21 09:52:02;;;;;;;7.07;3.40;;;26.00;99.90;;;;;;5050478;28;20400;-55
2022/08/21 09:54:39;;;;;;;7.80;2.97;;;25.50;99.90;;;;;;5050011;28;20433;-55
2022/08/21 10:00:19;;;;;;;9.00;3.80;;;25.40;99.90;;;;;;5048653;28;20486;-55
2022/08/21 10:02:45;;;;;;;7.53;3.00;;;25.30;99.90;;;;;;5049742;28;20496;-54
2022/08/21 10:05:25;;;;;;;6.43;3.13;;;25.40;99.90;;;;;;5032799;28;20896;-56
2022/08/21 10:07:51;;;;;;;6.50;3.00;;;25.70;99.90;;;;;;5041007;28;20191;-55
2022/08/21 10:10:21;;;;;;;9.00;3.00;;;25.80;99.90;;;;;;5036408;28;20440;-55
2022/08/21 10:13:00;;;;;;;8.63;3.30;;;25.90;99.90;;;;;;5049129;28;20444;-54
2022/08/21 10:15:51;;;;;;;5.20;2.47;;;26.30;99.90;;;;;;5040335;28;20437;-55
2022/08/21 10:18:23;;;;;;;5.23;2.57;;;26.50;99.90;;;;;;5039907;28;20457;-55
2022/08/21 10:21:07;;;;;;;8.93;2.83;;;27.10;99.90;;;;;;5038303;28;20441;-55
2022/08/21 10:23:50;;;;;;;8.07;2.60;;;26.90;99.90;;;;;;5043577;28;20558;-54
2022/08/21 10:26:37;;;;;;;7.47;2.73;;;26.70;99.90;;;;;;5039115;28;20564;-54
2022/08/21 10:29:22;;;;;;;9.30;2.90;;;26.60;99.90;;;;;;5045837;28;20833;-54
2022/08/21 10:32:03;;;;;;;8.20;2.67;;;27.00;99.90;;;;;;5042100;28;20441;-55
2022/08/21 10:34:50;;;;;;;5.83;2.73;;;27.70;99.90;;;;;;5050117;28;20463;-53
2022/08/21 10:37:34;;;;;;;6.00;2.90;;;28.30;99.90;;;;;;5050226;28;20872;-53
2022/08/21 10:40:08;;;;;;;7.07;2.37;;;28.40;99.90;;;;;;5034255;28;20412;-54
2022/08/21 10:42:41;;;;;;;4.80;2.40;;;28.40;99.90;;;;;;5034109;28;20490;-54
2022/08/21 10:45:25;;;;;;;7.10;2.20;;;28.40;99.90;;;;;;5034343;28;20488;-52
2022/08/21 10:47:56;;;;;;;3.70;2.20;;;29.00;99.90;;;;;;5033575;28;20449;-54
2022/08/21 10:50:32;;;;;;;8.10;2.87;;;29.40;99.90;;;;;;5035970;28;20514;-55
2022/08/21 10:53:19;;;;;;;3.50;2.33;;;28.90;99.90;;;;;;5034366;28;20441;-54
2022/08/21 10:56:04;;;;;;;6.53;2.90;;;29.10;99.90;;;;;;5035632;28;20462;-54
2022/08/21 10:58:40;;;;;;;5.77;2.60;;;29.70;99.90;;;;;;5040638;28;20453;-54
2022/08/21 11:01:12;;;;;;;4.77;2.20;;;29.70;99.90;;;;;;5039817;28;20502;-54
2022/08/21 11:04:03;;;;;;;3.20;2.43;;;29.70;99.90;;;;;;5052062;28;20448;-53
2022/08/21 11:06:32;;;;;;;4.80;2.27;;;29.90;99.90;;;;;;5036657;28;20507;-55
2022/08/21 11:09:13;;;;;;;4.10;2.20;;;30.40;99.90;;;;;;5040626;28;20456;-55
2022/08/21 11:11:57;;;;;;;7.87;2.33;;;30.30;99.90;;;;;;5037018;28;20468;-55
2022/08/21 11:14:51;;;;;;;3.40;2.07;;;30.10;99.90;;;;;;5050286;28;20441;-55
2022/08/21 11:17:32;;;;;;;5.63;2.50;;;30.00;99.90;;;;;;5050523;28;20458;-55
2022/08/21 11:20:13;;;;;;;3.10;2.00;;;28.90;99.90;;;;;;5051392;28;20447;-55
2022/08/21 11:23:00;;;;;;;3.43;2.13;;;28.80;99.90;;;;;;5051189;28;21032;-56
2022/08/21 11:25:38;;;;;;;4.73;2.50;;;28.40;99.90;;;;;;5052966;28;20457;-56
2022/08/21 11:28:17;;;;;;;5.10;2.30;;;28.60;99.90;;;;;;5042358;28;20842;-55
2022/08/21 11:30:54;;;;;;;3.83;2.30;;;29.30;99.90;;;;;;5034533;28;20494;-55
2022/08/21 11:33:34;;;;;;;4.23;2.03;;;29.70;99.90;;;;;;5042079;28;20930;-54
2022/08/21 11:36:08;;;;;;;3.47;2.20;;;29.80;99.90;;;;;;5033019;28;20456;-55
2022/08/21 11:38:41;;;;;;;3.63;1.73;;;30.10;99.90;;;;;;5033221;28;20433;-55
2022/08/21 11:41:25;;;;;;;3.90;2.00;;;29.90;99.90;;;;;;5032453;28;20426;-55
2022/08/21 11:44:13;;;;;;;7.30;2.27;;;29.80;99.90;;;;;;5032649;28;20418;-54
2022/08/21 11:46:49;;;;;;;4.33;2.00;;;30.10;99.90;;;;;;5042379;28;20473;-54
2022/08/21 11:49:52;;;;;;;5.63;2.20;;;30.50;99.90;;;;;;5052779;28;20408;-54
2022/08/21 11:52:33;;;;;;;6.33;2.10;;;30.70;99.90;;;;;;5049262;28;20444;-54
2022/08/21 11:55:15;;;;;;;4.40;2.50;;;31.00;99.90;;;;;;5044469;28;20482;-58
2022/08/21 11:57:56;;;;;;;4.60;2.27;;;31.40;99.90;;;;;;5051697;28;20483;-58
2022/08/21 12:01:03;;;;;;;3.10;1.90;;;31.40;99.90;;;;;;5052579;28;20389;-58
2022/08/21 12:03:42;;;;;;;3.13;2.23;;;31.80;99.90;;;;;;5052296;28;20914;-57
2022/08/21 12:06:12;;;;;;;5.20;2.30;;;32.00;99.90;;;;;;5048460;28;20531;-59
2022/08/21 12:08:56;;;;;;;4.87;1.90;;;32.20;99.90;;;;;;5043678;28;20995;-58
2022/08/21 12:11:25;;;;;;;6.50;2.17;;;32.10;99.90;;;;;;5052318;28;20401;-58
2022/08/21 12:13:59;;;;;;;6.13;2.17;;;31.60;99.90;;;;;;5051749;28;20449;-58
2022/08/21 12:16:49;;;;;;;4.27;2.07;;;31.30;99.90;;;;;;5043511;28;20498;-57
2022/08/21 12:19:20;;;;;;;4.37;1.77;;;31.80;99.90;;;;;;5040781;28;20546;-58
2022/08/21 12:21:54;;;;;;;3.90;2.07;;;32.40;99.90;;;;;;5049409;28;20456;-57
2022/08/21 12:24:48;;;;;;;6.77;1.80;;;32.40;99.90;;;;;;5047893;28;20522;-57
2022/08/21 12:27:26;;;;;;;2.20;1.93;;;32.80;99.90;;;;;;5032738;28;20476;-60
2022/08/21 12:29:58;;;;;;;3.83;2.27;;;32.50;99.90;;;;;;5045819;28;20441;-59
2022/08/21 12:32:28;;;;;;;6.03;1.87;;;31.80;99.90;;;;;;5051421;28;20449;-58
2022/08/21 12:35:13;;;;;;;5.10;2.60;;;31.40;99.90;;;;;;5048949;28;20437;-58
2022/08/21 12:37:44;;;;;;;2.10;1.63;;;31.40;99.90;;;;;;5049914;28;20456;-58
2022/08/21 12:40:22;;;;;;;4.10;2.07;;;32.20;99.90;;;;;;5036695;28;20474;-58
2022/08/21 12:42:52;;;;;;;2.70;1.70;;;32.80;99.90;;;;;;5031522;28;20852;-59
2022/08/21 12:45:31;;;;;;;5.70;1.80;;;33.20;99.90;;;;;;5031239;28;20943;-57
2022/08/21 12:47:56;;;;;;;2.77;1.70;;;33.50;99.90;;;;;;5031687;28;20533;-58
2022/08/21 12:50:43;;;;;;;4.20;2.00;;;33.60;99.90;;;;;;5032939;28;20979;-59
2022/08/21 12:53:33;;;;;;;2.30;1.67;;;32.80;99.90;;;;;;5042703;28;20198;-58
2022/08/21 12:56:03;;;;;;;4.77;1.97;;;32.30;99.90;;;;;;5041196;28;20490;-57
2022/08/21 12:58:30;;;;;;;5.53;2.03;;;32.30;99.90;;;;;;5051450;28;20893;-58
2022/08/21 13:01:24;;;;;;;2.40;1.60;;;32.70;99.90;;;;;;5045183;28;20893;-59
2022/08/21 13:03:54;;;;;;;2.87;1.63;;;32.30;99.90;;;;;;5051368;28;20977;-57
2022/08/21 13:06:22;;;;;;;3.20;2.10;;;31.90;99.90;;;;;;5047709;28;20468;-58
2022/08/21 13:08:53;;;;;;;6.00;1.50;;;31.30;99.90;;;;;;5050318;28;20448;-59